createdAt,value
2018-10-17T00:00:17.948Z,17.29
2018-10-17T00:02:48.608Z,17.26
2018-10-17T00:05:18.635Z,17.22
2018-10-17T00:07:48.045Z,17.19
2018-10-17T00:10:17.666Z,17.15
2018-10-17T00:12:47.444Z,17.16
2018-10-17T00:15:16.810Z,17.13
2018-10-17T00:17:46.371Z,17.11
2018-10-17T00:20:15.716Z,17.09
2018-10-17T00:22:45.592Z,17.07
2018-10-17T00:25:15.200Z,17.06
2018-10-17T00:27:44.585Z,17.08
2018-10-17T00:30:14.899Z,17.07
2018-10-17T00:32:44.153Z,17.03
2018-10-17T00:35:13.393Z,17.03
2018-10-17T00:37:42.685Z,17.00
2018-10-17T00:40:12.152Z,17.00
2018-10-17T00:42:41.428Z,16.97
2018-10-17T00:45:11.105Z,16.94
2018-10-17T00:47:40.399Z,16.89
2018-10-17T00:50:09.895Z,16.87
2018-10-17T00:52:39.345Z,16.87
2018-10-17T00:55:08.752Z,16.82
2018-10-17T00:57:38.114Z,16.81
2018-10-17T01:00:07.457Z,16.79
2018-10-17T01:02:36.923Z,16.77
2018-10-17T01:05:06.324Z,16.77
2018-10-17T01:07:35.568Z,16.79
2018-10-17T01:10:05.245Z,16.75
2018-10-17T01:12:34.648Z,16.73
2018-10-17T01:15:05.169Z,16.70
2018-10-17T01:17:34.715Z,16.69
2018-10-17T01:20:04.193Z,16.69
2018-10-17T01:22:34.612Z,16.70
2018-10-17T01:25:04.844Z,16.69
2018-10-17T01:27:35.836Z,16.74
2018-10-17T01:30:06.244Z,16.73
2018-10-17T01:32:36.131Z,16.69
2018-10-17T01:35:06.997Z,16.67
2018-10-17T01:37:36.547Z,16.66
2018-10-17T01:40:07.361Z,16.63
2018-10-17T01:42:37.224Z,16.61
2018-10-17T01:45:08.209Z,16.58
2018-10-17T01:47:39.075Z,16.57
2018-10-17T01:50:09.260Z,16.53
2018-10-17T01:52:39.648Z,16.52
2018-10-17T01:55:09.280Z,16.49
2018-10-17T01:57:38.504Z,16.47
2018-10-17T02:00:08.032Z,16.45
2018-10-17T02:02:37.586Z,16.44
2018-10-17T02:05:07.009Z,16.41
2018-10-17T02:07:36.393Z,16.39
2018-10-17T02:10:05.717Z,16.37
2018-10-17T02:12:35.125Z,16.33
2018-10-17T02:15:04.453Z,16.32
2018-10-17T02:17:33.923Z,16.30
2018-10-17T02:20:03.401Z,16.29
2018-10-17T02:22:32.651Z,16.28
2018-10-17T02:25:02.196Z,16.26
2018-10-17T02:27:32.177Z,16.25
2018-10-17T02:30:01.873Z,16.25
2018-10-17T02:32:31.216Z,16.22
2018-10-17T02:35:20.228Z,16.23
2018-10-17T02:37:49.667Z,16.21
2018-10-17T02:40:19.106Z,16.20
2018-10-17T02:42:48.410Z,16.18
2018-10-17T02:45:17.768Z,16.17
2018-10-17T02:47:47.253Z,16.16
2018-10-17T02:50:16.563Z,16.15
2018-10-17T02:52:46.118Z,16.12
2018-10-17T02:55:15.572Z,16.09
2018-10-17T02:57:44.945Z,16.07
2018-10-17T03:00:14.281Z,16.08
2018-10-17T03:02:43.973Z,16.05
2018-10-17T03:05:13.478Z,16.03
2018-10-17T03:07:42.903Z,16.01
2018-10-17T03:10:12.221Z,15.98
2018-10-17T03:12:42.825Z,15.96
2018-10-17T03:15:30.405Z,15.96
2018-10-17T03:18:02.341Z,15.96
2018-10-17T03:20:31.727Z,15.96
2018-10-17T03:23:00.941Z,15.94
2018-10-17T03:25:30.227Z,15.93
2018-10-17T03:27:59.670Z,15.91
2018-10-17T03:30:29.239Z,15.90
2018-10-17T03:32:58.533Z,15.89
2018-10-17T03:35:27.780Z,15.89
2018-10-17T03:37:57.001Z,15.88
2018-10-17T03:40:26.235Z,15.87
2018-10-17T03:42:55.606Z,15.85
2018-10-17T03:45:24.985Z,15.84
2018-10-17T03:47:54.226Z,15.86
2018-10-17T03:50:23.554Z,15.85
2018-10-17T03:52:52.757Z,15.84
2018-10-17T03:55:21.979Z,15.82
2018-10-17T03:57:51.502Z,15.82
2018-10-17T04:00:20.773Z,15.81
2018-10-17T04:02:50.148Z,15.81
2018-10-17T04:05:19.610Z,15.80
2018-10-17T04:07:48.794Z,15.79
2018-10-17T04:10:18.258Z,15.78
2018-10-17T04:12:47.658Z,15.77
2018-10-17T04:15:17.814Z,15.76
2018-10-17T04:17:50.798Z,15.75
2018-10-17T04:20:20.469Z,15.74
2018-10-17T04:22:57.635Z,15.77
2018-10-17T04:25:27.033Z,15.77
2018-10-17T04:27:56.364Z,15.80
2018-10-17T04:30:26.179Z,15.82
2018-10-17T04:32:56.229Z,15.77
2018-10-17T04:35:25.783Z,15.77
2018-10-17T04:37:55.304Z,15.74
2018-10-17T04:40:24.806Z,15.70
2018-10-17T04:42:55.099Z,15.66
2018-10-17T04:45:24.766Z,15.65
2018-10-17T04:47:54.316Z,15.63
2018-10-17T04:50:23.856Z,15.63
2018-10-17T04:52:53.515Z,15.61
2018-10-17T04:55:23.650Z,15.60
2018-10-17T04:57:53.010Z,15.59
2018-10-17T05:00:22.415Z,15.55
2018-10-17T05:02:52.051Z,15.54
2018-10-17T05:05:21.456Z,15.53
2018-10-17T05:07:51.099Z,15.51
2018-10-17T05:10:21.441Z,15.48
2018-10-17T05:12:51.031Z,15.46
2018-10-17T05:15:20.419Z,15.45
2018-10-17T05:17:49.787Z,15.43
2018-10-17T05:20:19.051Z,15.46
2018-10-17T05:22:48.511Z,15.48
2018-10-17T05:25:18.083Z,15.51
2018-10-17T05:27:48.125Z,15.50
2018-10-17T05:30:17.965Z,15.51
2018-10-17T05:32:47.405Z,15.49
2018-10-17T05:35:17.085Z,15.51
2018-10-17T05:37:47.741Z,15.51
2018-10-17T05:40:17.861Z,15.50
2018-10-17T05:42:48.647Z,15.53
2018-10-17T05:45:18.128Z,15.53
2018-10-17T05:47:47.700Z,15.53
2018-10-17T05:50:17.510Z,15.55
2018-10-17T05:52:46.872Z,15.58
2018-10-17T05:55:16.288Z,15.58
2018-10-17T05:57:45.518Z,15.55
2018-10-17T06:00:16.106Z,15.55
2018-10-17T06:02:45.499Z,15.54
2018-10-17T06:05:14.889Z,15.52
2018-10-17T06:07:44.138Z,15.52
2018-10-17T06:10:15.110Z,15.53
2018-10-17T06:12:44.606Z,15.54
2018-10-17T06:15:14.285Z,15.52
2018-10-17T06:17:43.659Z,15.53
2018-10-17T06:20:13.806Z,15.54
2018-10-17T06:22:43.239Z,15.55
2018-10-17T06:25:13.005Z,15.57
2018-10-17T06:27:43.230Z,15.55
2018-10-17T06:30:13.246Z,15.56
2018-10-17T06:32:42.846Z,15.55
2018-10-17T06:35:13.394Z,15.55
2018-10-17T06:37:43.084Z,15.56
2018-10-17T06:40:12.590Z,15.53
2018-10-17T06:42:42.041Z,15.50
2018-10-17T06:45:12.014Z,15.46
2018-10-17T06:47:41.696Z,15.49
2018-10-17T06:50:11.203Z,15.45
2018-10-17T06:52:40.680Z,15.42
2018-10-17T06:55:10.388Z,15.39
2018-10-17T06:57:40.557Z,15.36
2018-10-17T07:00:11.078Z,15.35
2018-10-17T07:02:40.604Z,15.35
2018-10-17T07:05:11.370Z,15.34
2018-10-17T07:07:41.646Z,15.33
2018-10-17T07:10:11.429Z,15.31
2018-10-17T07:12:40.827Z,15.32
2018-10-17T07:15:10.439Z,15.34
2018-10-17T07:17:39.911Z,15.35
2018-10-17T07:20:09.952Z,15.38
2018-10-17T07:22:39.530Z,15.39
2018-10-17T07:25:08.820Z,15.43
2018-10-17T07:27:38.473Z,15.44
2018-10-17T07:30:09.026Z,15.45
2018-10-17T07:32:38.467Z,15.45
2018-10-17T07:35:09.668Z,15.48
2018-10-17T07:37:40.050Z,15.51
2018-10-17T07:40:09.384Z,15.53
2018-10-17T07:42:38.847Z,15.55
2018-10-17T07:45:08.377Z,15.56
2018-10-17T07:47:37.713Z,15.56
2018-10-17T07:50:08.278Z,15.56
2018-10-17T07:52:37.828Z,15.62
2018-10-17T07:55:08.815Z,15.62
2018-10-17T07:57:38.247Z,15.66
2018-10-17T08:00:11.760Z,15.70
2018-10-17T08:02:42.213Z,15.74
2018-10-17T08:05:11.719Z,15.79
2018-10-17T08:07:41.100Z,15.82
2018-10-17T08:10:11.394Z,15.87
2018-10-17T08:12:40.902Z,15.95
2018-10-17T08:15:10.638Z,15.99
2018-10-17T08:17:39.912Z,16.04
2018-10-17T08:20:11.310Z,16.16
2018-10-17T08:22:40.961Z,16.22
2018-10-17T08:25:12.208Z,16.27
2018-10-17T08:27:42.593Z,16.31
2018-10-17T08:30:12.173Z,16.37
2018-10-17T08:32:41.836Z,16.43
2018-10-17T08:35:11.209Z,16.49
2018-10-17T08:37:41.124Z,16.52
2018-10-17T08:40:09.946Z,16.54
2018-10-17T08:42:39.319Z,16.56
2018-10-17T08:45:08.799Z,16.59
2018-10-17T08:47:39.126Z,16.61
2018-10-17T08:50:08.739Z,16.65
2018-10-17T08:52:37.965Z,16.71
2018-10-17T08:55:07.584Z,16.68
2018-10-17T08:57:36.907Z,16.69
2018-10-17T09:00:07.410Z,16.70
2018-10-17T09:02:36.779Z,16.73
2018-10-17T09:05:06.241Z,16.80
2018-10-17T09:07:35.816Z,16.88
2018-10-17T09:10:06.165Z,16.96
2018-10-17T09:12:36.024Z,17.04
2018-10-17T09:15:07.030Z,17.05
2018-10-17T09:17:37.043Z,17.13
2018-10-17T09:20:08.018Z,17.37
2018-10-17T09:22:37.221Z,17.37
2018-10-17T09:25:06.737Z,17.43
2018-10-17T09:27:36.347Z,17.47
2018-10-17T09:30:06.693Z,17.53
2018-10-17T09:32:36.172Z,17.55
2018-10-17T09:35:06.527Z,17.61
2018-10-17T09:37:36.352Z,17.67
2018-10-17T09:40:07.028Z,17.74
2018-10-17T09:42:36.481Z,17.77
2018-10-17T09:45:07.134Z,17.85
2018-10-17T09:47:36.791Z,17.90
2018-10-17T09:50:07.403Z,17.94
2018-10-17T09:52:36.817Z,17.99
2018-10-17T09:55:07.273Z,18.06
2018-10-17T09:57:36.634Z,18.09
2018-10-17T10:03:44.598Z,18.25
2018-10-17T10:06:13.940Z,18.29
2018-10-17T10:08:43.600Z,18.43
2018-10-17T10:11:13.001Z,18.50
2018-10-17T10:13:42.345Z,18.57
2018-10-17T10:16:11.800Z,18.63
2018-10-17T10:18:41.263Z,18.75
2018-10-17T10:21:10.772Z,18.83
2018-10-17T10:23:40.353Z,18.89
2018-10-17T10:26:09.693Z,18.93
2018-10-17T10:28:39.287Z,18.98
2018-10-17T10:31:08.675Z,19.06
2018-10-17T10:33:38.367Z,19.09
2018-10-17T10:36:07.596Z,19.15
2018-10-17T10:38:37.029Z,19.19
2018-10-17T10:41:07.045Z,19.24
2018-10-17T10:43:36.689Z,19.30
2018-10-17T10:46:07.036Z,19.33
2018-10-17T10:48:36.849Z,19.39
2018-10-17T10:51:07.039Z,19.38
2018-10-17T10:53:36.592Z,19.41
2018-10-17T10:56:06.621Z,19.43
2018-10-17T10:58:36.220Z,19.47
2018-10-17T11:01:06.480Z,19.57
2018-10-17T11:03:36.036Z,19.63
2018-10-17T11:06:06.129Z,19.70
2018-10-17T11:08:36.149Z,19.74
2018-10-17T11:11:06.571Z,19.79
2018-10-17T11:13:35.928Z,19.82
2018-10-17T11:16:05.470Z,19.86
2018-10-17T11:18:35.077Z,19.96
2018-10-17T11:21:04.712Z,20.04
2018-10-17T11:23:35.208Z,20.07
2018-10-17T11:26:04.571Z,20.08
2018-10-17T11:28:34.769Z,20.12
2018-10-17T11:31:04.089Z,20.18
2018-10-17T11:33:33.580Z,20.27
2018-10-17T11:36:03.362Z,20.35
2018-10-17T11:38:32.791Z,20.44
2018-10-17T11:41:02.904Z,20.53
2018-10-17T11:43:32.780Z,20.60
2018-10-17T11:46:02.577Z,20.63
2018-10-17T11:48:33.669Z,20.84
2018-10-17T11:51:03.122Z,21.11
2018-10-17T11:53:33.087Z,21.45
2018-10-17T11:56:02.834Z,21.71
2018-10-17T11:58:32.269Z,22.19
2018-10-17T12:01:01.770Z,23.02
2018-10-17T12:03:31.810Z,23.12
2018-10-17T12:06:01.288Z,22.94
2018-10-17T12:08:30.586Z,23.50
2018-10-17T12:11:00.030Z,23.97
2018-10-17T12:13:29.589Z,24.65
2018-10-17T12:15:59.058Z,25.28
2018-10-17T12:18:29.303Z,25.78
2018-10-17T12:20:58.963Z,25.49
2018-10-17T12:23:31.788Z,25.06
2018-10-17T12:26:01.211Z,24.72
2018-10-17T12:28:30.779Z,24.27
2018-10-17T12:31:00.413Z,24.10
2018-10-17T12:33:30.226Z,24.25
2018-10-17T12:35:59.559Z,24.61
2018-10-17T12:38:30.334Z,25.10
2018-10-17T12:40:59.957Z,26.37
2018-10-17T12:43:29.388Z,27.12
2018-10-17T12:45:59.633Z,27.53
2018-10-17T12:48:29.027Z,26.65
2018-10-17T12:50:58.565Z,27.37
2018-10-17T12:53:27.976Z,27.59
2018-10-17T12:55:57.477Z,27.89
2018-10-17T12:58:26.884Z,28.00
2018-10-17T13:00:56.331Z,28.76
2018-10-17T13:03:25.699Z,28.28
2018-10-17T13:05:55.041Z,27.84
2018-10-17T13:08:24.542Z,28.51
2018-10-17T13:10:54.265Z,29.26
2018-10-17T13:13:24.071Z,28.91
2018-10-17T13:15:53.463Z,27.90
2018-10-17T13:18:22.833Z,27.70
2018-10-17T13:20:52.188Z,28.16
2018-10-17T13:23:21.642Z,28.13
2018-10-17T13:25:51.021Z,27.92
2018-10-17T13:28:20.410Z,27.82
2018-10-17T13:30:50.392Z,27.93
2018-10-17T13:33:19.640Z,27.61
2018-10-17T13:35:49.098Z,27.48
2018-10-17T13:38:18.445Z,27.36
2018-10-17T13:40:48.576Z,27.80
2018-10-17T13:43:17.988Z,27.72
2018-10-17T13:45:47.418Z,27.58
2018-10-17T13:48:16.902Z,27.87
2018-10-17T13:50:46.344Z,28.25
2018-10-17T13:53:15.922Z,28.03
2018-10-17T13:55:45.325Z,27.56
2018-10-17T13:58:15.000Z,27.26
2018-10-17T14:00:45.470Z,26.87
2018-10-17T14:03:15.119Z,26.67
2018-10-17T14:05:44.529Z,26.17
2018-10-17T14:08:13.965Z,25.65
2018-10-17T14:10:43.295Z,25.46
2018-10-17T14:13:13.015Z,25.36
2018-10-17T14:15:42.681Z,25.29
2018-10-17T14:18:12.317Z,25.19
2018-10-17T14:20:41.953Z,24.94
2018-10-17T14:23:11.363Z,24.62
2018-10-17T14:25:41.071Z,24.48
2018-10-17T14:28:10.558Z,24.28
2018-10-17T14:30:39.852Z,24.19
2018-10-17T14:33:09.281Z,24.14
2018-10-17T14:35:38.876Z,23.99
2018-10-17T14:38:09.818Z,23.87
2018-10-17T14:40:39.340Z,23.69
2018-10-17T14:43:08.882Z,23.63
2018-10-17T14:45:39.443Z,23.59
2018-10-17T14:48:09.487Z,23.62
2018-10-17T14:50:38.801Z,23.50
2018-10-17T14:53:09.629Z,23.46
2018-10-17T14:55:39.137Z,23.39
2018-10-17T14:58:08.929Z,23.36
2018-10-17T15:00:39.271Z,23.28
2018-10-17T15:03:08.688Z,23.25
2018-10-17T15:05:39.766Z,23.20
2018-10-17T15:08:09.216Z,23.10
2018-10-17T15:10:38.866Z,23.00
2018-10-17T15:13:08.436Z,22.98
2018-10-17T15:15:39.886Z,22.90
2018-10-17T15:18:09.696Z,22.84
2018-10-17T15:20:39.902Z,22.87
2018-10-17T15:23:09.775Z,22.85
2018-10-17T15:25:40.068Z,22.81
2018-10-17T15:28:09.814Z,22.81
2018-10-17T15:30:39.399Z,22.84
2018-10-17T15:33:08.849Z,22.79
2018-10-17T15:35:38.382Z,22.74
2018-10-17T15:38:08.238Z,22.75
2018-10-17T15:40:37.561Z,22.71
2018-10-17T15:43:06.882Z,22.65
2018-10-17T15:45:36.195Z,22.60
2018-10-17T15:48:05.879Z,22.62
2018-10-17T15:50:35.344Z,22.58
2018-10-17T15:53:04.884Z,22.60
2018-10-17T15:55:34.252Z,22.54
2018-10-17T15:58:04.392Z,22.58
2018-10-17T16:00:34.181Z,22.51
2018-10-17T16:03:03.873Z,22.43
2018-10-17T16:05:33.534Z,22.39
2018-10-17T16:08:02.907Z,22.41
2018-10-17T16:10:32.511Z,22.45
2018-10-17T16:13:02.533Z,22.27
2018-10-17T16:15:32.346Z,22.15
2018-10-17T16:18:02.809Z,22.06
2018-10-17T16:20:32.272Z,22.00
2018-10-17T16:23:03.494Z,22.00
2018-10-17T16:25:32.904Z,21.91
2018-10-17T16:28:03.534Z,21.81
2018-10-17T16:30:33.277Z,21.75
2018-10-17T16:33:03.452Z,21.70
2018-10-17T16:35:33.070Z,21.56
2018-10-17T16:38:02.794Z,21.52
2018-10-17T16:40:32.327Z,21.45
2018-10-17T16:43:09.409Z,21.46
2018-10-17T16:45:38.976Z,21.35
2018-10-17T16:48:08.482Z,21.34
2018-10-17T16:50:38.807Z,21.28
2018-10-17T16:53:08.140Z,21.24
2018-10-17T16:55:37.475Z,21.12
2018-10-17T16:58:07.139Z,21.03
2018-10-17T17:00:36.837Z,21.02
2018-10-17T17:03:06.441Z,20.94
2018-10-17T17:05:36.449Z,20.87
2018-10-17T17:08:06.158Z,20.93
2018-10-17T17:10:35.730Z,20.88
2018-10-17T17:13:05.748Z,20.82
2018-10-17T17:15:35.375Z,20.79
2018-10-17T17:18:05.165Z,20.77
2018-10-17T17:20:34.621Z,20.70
2018-10-17T17:23:04.073Z,20.65
2018-10-17T17:25:33.535Z,20.60
2018-10-17T17:28:03.203Z,20.49
2018-10-17T17:30:32.689Z,20.52
2018-10-17T17:33:03.722Z,20.50
2018-10-17T17:35:33.832Z,20.48
2018-10-17T17:38:04.583Z,20.41
2018-10-17T17:40:34.166Z,20.35
2018-10-17T17:43:03.835Z,20.31
2018-10-17T17:45:33.447Z,20.30
2018-10-17T17:48:03.060Z,20.23
2018-10-17T17:50:32.604Z,20.29
2018-10-17T17:53:02.416Z,20.20
2018-10-17T17:55:32.460Z,20.24
2018-10-17T17:58:01.983Z,20.20
2018-10-17T18:00:32.465Z,20.12
2018-10-17T18:03:01.873Z,20.05
2018-10-17T18:05:31.434Z,19.98
2018-10-17T18:08:01.270Z,19.96
2018-10-17T18:10:30.719Z,19.92
2018-10-17T18:13:00.149Z,19.95
2018-10-17T18:15:29.591Z,19.84
2018-10-17T18:17:59.211Z,19.85
2018-10-17T18:20:28.811Z,19.79
2018-10-17T18:22:58.280Z,19.75
2018-10-17T18:25:27.833Z,19.71
2018-10-17T18:27:58.415Z,19.67
2018-10-17T18:30:27.958Z,19.65
2018-10-17T18:32:57.348Z,19.63
2018-10-17T18:35:26.768Z,19.59
2018-10-17T18:37:56.901Z,19.58
2018-10-17T18:40:26.759Z,19.51
2018-10-17T18:42:56.433Z,19.52
2018-10-17T18:45:26.506Z,19.49
2018-10-17T18:47:55.954Z,19.45
2018-10-17T18:50:25.285Z,19.41
2018-10-17T18:52:54.827Z,19.41
2018-10-17T18:55:24.225Z,19.35
2018-10-17T18:57:53.645Z,19.30
2018-10-17T19:00:23.588Z,19.28
2018-10-17T19:02:53.132Z,19.25
2018-10-17T19:05:29.034Z,19.24
2018-10-17T19:07:58.722Z,19.21
2018-10-17T19:10:28.193Z,19.16
2018-10-17T19:12:57.651Z,19.11
2018-10-17T19:15:27.136Z,19.13
2018-10-17T19:17:56.609Z,19.08
2018-10-17T19:20:26.758Z,19.02
2018-10-17T19:22:57.264Z,19.02
2018-10-17T19:25:26.929Z,19.00
2018-10-17T19:27:59.455Z,18.98
2018-10-17T19:30:29.867Z,18.95
2018-10-17T19:33:00.332Z,18.93
2018-10-17T19:35:30.198Z,18.94
2018-10-17T19:38:00.470Z,18.93
2018-10-17T19:40:30.117Z,18.89
2018-10-17T19:42:59.751Z,18.88
2018-10-17T19:45:29.201Z,18.88
2018-10-17T19:47:58.730Z,18.86
2018-10-17T19:50:28.835Z,18.83
2018-10-17T19:52:58.952Z,18.81
2018-10-17T19:55:29.514Z,18.74
2018-10-17T19:57:59.614Z,18.72
2018-10-17T20:00:29.211Z,18.74
2018-10-17T20:02:59.237Z,18.71
2018-10-17T20:05:28.542Z,18.67
2018-10-17T20:07:58.330Z,18.68
2018-10-17T20:10:27.704Z,18.72
2018-10-17T20:12:57.803Z,18.65
2018-10-17T20:15:27.308Z,18.63
2018-10-17T20:17:57.083Z,18.58
2018-10-17T20:20:26.665Z,18.54
2018-10-17T20:22:56.273Z,18.57
2018-10-17T20:25:25.778Z,18.50
2018-10-17T20:27:55.569Z,18.47
2018-10-17T20:30:25.006Z,18.44
2018-10-17T20:32:54.983Z,18.46
2018-10-17T20:35:24.470Z,18.46
2018-10-17T20:37:53.849Z,18.43
2018-10-17T20:40:23.286Z,18.46
2018-10-17T20:42:52.949Z,18.39
2018-10-17T20:45:23.165Z,18.40
2018-10-17T20:47:52.600Z,18.34
2018-10-17T20:50:21.901Z,18.29
2018-10-17T20:52:51.438Z,18.24
2018-10-17T20:55:21.132Z,18.28
2018-10-17T20:57:50.577Z,18.19
2018-10-17T21:00:20.196Z,18.20
2018-10-17T21:02:49.511Z,18.16
2018-10-17T21:05:18.854Z,18.14
2018-10-17T21:07:48.239Z,18.09
2018-10-17T21:10:17.699Z,18.12
2018-10-17T21:12:47.261Z,18.05
2018-10-17T21:15:17.121Z,18.05
2018-10-17T21:17:47.103Z,17.98
2018-10-17T21:20:16.895Z,17.95
2018-10-17T21:22:46.351Z,17.92
2018-10-17T21:25:16.030Z,17.91
2018-10-17T21:27:45.601Z,17.94
2018-10-17T21:30:15.114Z,17.93
2018-10-17T21:32:45.158Z,17.92
2018-10-17T21:35:14.643Z,17.89
2018-10-17T21:37:44.180Z,17.85
2018-10-17T21:40:14.065Z,17.83
2018-10-17T21:42:44.138Z,17.83
2018-10-17T21:45:14.537Z,17.83
2018-10-17T21:47:45.061Z,17.82
2018-10-17T21:50:14.918Z,17.76
2018-10-17T21:52:44.342Z,17.68
2018-10-17T21:55:13.913Z,17.63
2018-10-17T21:57:43.356Z,17.63
2018-10-17T22:00:13.411Z,17.55
2018-10-17T22:02:42.876Z,17.52
2018-10-17T22:05:12.388Z,17.51
2018-10-17T22:07:41.748Z,17.50
2018-10-17T22:10:11.099Z,17.44
2018-10-17T22:12:40.952Z,17.42
2018-10-17T22:15:11.124Z,17.43
2018-10-17T22:17:40.903Z,17.37
2018-10-17T22:20:10.629Z,17.28
2018-10-17T22:22:40.072Z,17.27
2018-10-17T22:25:09.580Z,17.25
2018-10-17T22:27:38.918Z,17.17
2018-10-17T22:30:08.645Z,17.15
2018-10-17T22:32:38.437Z,17.13
2018-10-17T22:35:07.709Z,17.02
2018-10-17T22:37:38.031Z,17.06
2018-10-17T22:40:07.517Z,16.95
2018-10-17T22:42:36.959Z,16.91
2018-10-17T22:45:06.788Z,16.88
2018-10-17T22:47:36.191Z,16.80
2018-10-17T22:50:07.105Z,16.79
2018-10-17T22:52:36.526Z,16.76
2018-10-17T22:55:05.951Z,16.76
2018-10-17T22:57:35.275Z,16.78
2018-10-17T23:00:04.829Z,16.71
2018-10-17T23:02:34.332Z,16.69
2018-10-17T23:05:03.693Z,16.63
2018-10-17T23:07:33.329Z,16.58
2018-10-17T23:10:02.719Z,16.59
2018-10-17T23:12:32.651Z,16.58
2018-10-17T23:15:02.214Z,16.58
2018-10-17T23:17:31.915Z,16.50
2018-10-17T23:20:01.285Z,16.44
2018-10-17T23:22:30.654Z,16.49
2018-10-17T23:25:00.990Z,16.41
2018-10-17T23:27:31.655Z,16.37
2018-10-17T23:30:01.597Z,16.34
2018-10-17T23:32:31.546Z,16.30
2018-10-17T23:35:01.252Z,16.28
2018-10-17T23:37:31.233Z,16.25
2018-10-17T23:40:02.009Z,16.25
2018-10-17T23:42:31.419Z,16.20
2018-10-17T23:45:03.066Z,16.07
2018-10-17T23:47:33.259Z,16.05
2018-10-17T23:50:02.655Z,16.01
2018-10-17T23:52:32.084Z,16.00
2018-10-17T23:55:01.747Z,15.93
2018-10-17T23:57:31.181Z,15.91
